Latest Weather Observations for Geelong Racecourse

IDV60901

Issued at 12:41 pm EDT Sunday 14 February 2016 (issued every 10 minutes, with the page automatically refreshed every 10 minutes)

About weather observations | Map of Melbourne area stations | Latest observations for Melbourne area | Other Formats
Station Details ID: 087184 Name: GEELONG RACECOURSE Lat: -38.17 Lon: 144.38 Height: 12.9 m
Data from the previous 72 hours. | See also: Recent months at Geelong Racecourse
Date/Time
EDT
Tmp

°C
App
Tmp
°C
Dew
Point
°C
Rel
Hum
%
Delta-T

°C
Wind Press
QNH
hPa
Press
MSL
hPa
Rain
since
9 am
mm
Dir
 
Spd
km/h
Gust
km/h
Spd
kts
Gust
kts
14/12:30pm 22.3 18.4 8.8 42 7.2 WSW 19 26 10 14 1011.4 1011.4 0.0
14/12:00pm 21.7 17.9 8.9 44 6.8 WSW 19 28 10 15 1011.6 1011.6 0.0
14/11:30am 20.7 16.0 9.3 48 6.1 W 24 35 13 19 1011.7 1011.7 0.0
14/11:00am 21.1 18.2 10.9 52 5.6 W 17 28 9 15 1011.9 1011.9 0.0
14/10:30am 20.7 17.3 11.3 55 5.2 W 20 30 11 16 1011.8 1011.8 0.0
14/10:00am 19.6 16.8 11.4 59 4.5 WNW 17 30 9 16 1011.7 1011.7 0.0
14/09:30am 18.9 16.3 11.9 64 3.9 W 17 24 9 13 1011.9 1011.9 0.0
14/09:00am 18.1 16.3 12.1 68 3.3 WNW 13 20 7 11 1011.7 1011.7 0.0
14/08:30am 17.0 15.5 11.9 72 2.8 W 11 22 6 12 1011.5 1011.5 0.0
14/08:00am 16.3 14.8 11.9 75 2.4 NW 11 22 6 12 1011.1 1011.1 0.0
14/07:30am 15.5 15.0 11.9 79 2.0 SW 6 13 3 7 1010.8 1010.8 0.0
14/07:00am 15.4 13.5 11.8 79 2.0 WNW 13 19 7 10 1010.3 1010.3 0.0
14/06:30am 14.9 13.5 12.2 84 1.5 WNW 11 17 6 9 1009.9 1009.9 0.0
14/06:00am 14.8 13.4 12.3 85 1.4 WNW 11 17 6 9 1009.7 1009.7 0.0
14/05:30am 15.1 13.4 12.4 84 1.5 WNW 13 17 7 9 1009.5 1009.5 0.0
14/05:00am 15.2 13.8 12.3 83 1.6 WNW 11 17 6 9 1009.4 1009.4 0.0
14/04:30am 15.5 14.4 12.1 80 1.9 WNW 9 19 5 10 1009.3 1009.3 0.0
14/04:00am 15.6 15.0 11.6 77 2.2 NW 6 11 3 6 1009.3 1009.3 0.0
14/03:30am 16.0 15.1 11.2 73 2.6 WNW 7 9 4 5 1009.5 1009.5 0.0
14/03:00am 16.2 15.3 10.5 69 3.0 WNW 6 9 3 5 1009.6 1009.6 0.0
14/02:30am 16.7 15.7 10.3 66 3.4 WNW 6 13 3 7 1009.5 1009.5 0.0
14/02:00am 17.6 16.1 10.5 63 3.8 W 9 15 5 8 1009.8 1009.8 0.0
14/01:30am 18.5 16.0 11.1 62 4.0 W 15 22 8 12 1009.9 1009.9 0.0
14/01:00am 18.9 16.0 11.0 60 4.3 W 17 24 9 13 1010.1 1010.1 0.0
14/12:30am 19.3 17.2 12.3 64 3.9 W 15 24 8 13 1010.3 1010.3 0.0
14/12:00am 19.4 18.1 13.6 69 3.3 WSW 13 19 7 10 1010.3 1010.3 0.0
 
Date/Time
EDT
Tmp

°C
App
Tmp
°C
Dew
Point
°C
Rel
Hum
%
Delta-T

°C
Wind Press
QNH
hPa
Press
MSL
hPa
Rain
since
9 am
mm
Dir
 
Spd
km/h
Gust
km/h
Spd
kts
Gust
kts
13/11:30pm 20.0 19.0 14.6 71 3.1 WSW 13 22 7 12 1010.3 1010.3 0.0
13/11:00pm 20.4 19.0 14.5 69 3.4 W 15 26 8 14 1010.2 1010.2 0.0
13/10:30pm 20.7 18.3 14.4 67 3.7 W 20 32 11 17 1010.0 1010.0 0.0
13/10:00pm 21.2 20.3 14.8 67 3.8 WSW 13 17 7 9 1009.8 1009.8 0.0
13/09:30pm 21.4 19.5 15.3 68 3.6 W 19 26 10 14 1009.3 1009.3 0.0
13/09:00pm 20.3 20.6 16.9 81 2.1 S 11 15 6 8 1008.6 1008.6 0.0
13/08:30pm 20.8 21.2 17.2 80 2.2 SE 11 17 6 9 1008.0 1008.0 0.0
13/08:00pm 21.5 21.4 16.0 71 3.3 ESE 11 19 6 10 1007.5 1007.5 0.0
13/07:30pm 22.0 21.2 16.1 69 3.6 SSE 15 22 8 12 1007.1 1007.1 0.0
13/07:00pm 22.3 20.5 15.6 66 4.0 SSE 19 28 10 15 1006.8 1006.8 0.0
13/06:30pm 22.6 20.0 15.0 62 4.5 S 22 30 12 16 1006.7 1006.7 0.0
13/06:00pm 23.2 20.8 15.3 61 4.7 SSE 22 32 12 17 1006.7 1006.7 0.0
13/05:30pm 23.4 21.0 15.5 61 4.7 S 22 32 12 17 1006.7 1006.7 0.0
13/05:00pm 23.8 20.7 15.6 60 5.0 S 26 33 14 18 1006.5 1006.5 0.0
13/04:30pm 23.3 20.6 15.6 62 4.6 S 24 32 13 17 1006.6 1006.6 0.0
13/04:00pm 23.5 19.5 15.3 60 4.9 S 30 41 16 22 1006.6 1006.6 0.0
13/03:30pm 24.2 20.7 15.4 58 5.3 S 28 37 15 20 1006.6 1006.6 0.0
13/03:00pm 24.6 20.7 15.5 57 5.5 S 30 41 16 22 1006.7 1006.7 0.0
13/02:30pm 25.4 22.8 16.0 56 5.7 S 24 33 13 18 1006.8 1006.8 0.0
13/02:00pm 25.6 23.0 15.9 55 5.9 SSE 24 32 13 17 1006.8 1006.8 0.0
13/01:52pm 26.3 24.5 16.0 53 6.3 SSE 20 33 11 18 1006.7 1006.7 0.0
13/01:30pm 31.4 27.6 9.0 25 12.5 W 19 30 10 16 1006.8 1006.8 0.0
13/01:00pm 30.2 26.9 9.7 28 11.6 W 17 26 9 14 1007.2 1007.2 0.0
13/12:30pm 29.7 26.4 10.8 31 10.8 W 19 26 10 14 1007.7 1007.7 0.0
13/12:00pm 28.5 25.5 10.7 33 10.1 W 17 24 9 13 1008.2 1008.2 0.0
13/11:30am 27.1 25.3 13.4 42 8.1 WSW 15 22 8 12 1008.4 1008.4 0.0
13/11:00am 25.4 24.5 13.6 48 6.9 W 11 22 6 12 1008.7 1008.7 0.0
13/10:30am 24.2 24.0 14.6 55 5.7 WSW 9 13 5 7 1008.9 1008.9 0.0
13/10:00am 20.7 20.5 14.8 69 3.5 WNW 9 13 5 7 1008.9 1008.9 0.0
13/09:30am 19.1 18.8 14.4 74 2.7 NNW 9 19 5 10 1008.5 1008.5 0.0
13/09:00am 19.0 19.2 14.3 74 2.7 NNE 6 9 3 5 1009.4 1009.4 0.0
13/08:30am 17.6 19.7 16.3 92 0.8 CALM 0 0 0 0 1009.2 1009.2 0.0
13/08:00am 16.3 17.2 15.0 92 0.8 N 4 6 2 3 1009.1 1009.1 0.0
13/07:30am 15.2 15.4 14.1 93 0.6 WNW 6 7 3 4 1008.8 1008.8 0.0
13/07:00am 15.0 15.1 13.9 93 0.6 NW 6 7 3 4 1008.2 1008.2 0.0
13/06:30am 14.8 14.6 13.7 93 0.6 NW 7 9 4 5 1008.0 1008.0 0.0
13/06:00am 15.0 14.9 13.9 93 0.6 NW 7 11 4 6 1007.8 1007.8 0.0
13/05:30am 15.4 15.6 14.3 93 0.6 NW 6 9 3 5 1007.8 1007.8 0.0
13/05:00am 15.3 15.5 14.3 94 0.6 NW 6 7 3 4 1007.9 1007.9 0.0
13/04:30am 14.9 15.4 13.9 94 0.6 NNW 4 6 2 3 1008.0 1008.0 0.0
13/04:00am 14.0 14.6 13.1 94 0.5 SSW 2 6 1 3 1008.2 1008.2 0.0
13/03:30am 14.6 15.7 13.6 94 0.6 CALM 0 0 0 0 1008.5 1008.5 0.0
13/03:00am 15.0 16.2 13.9 93 0.6 CALM 0 0 0 0 1008.5 1008.5 0.0
13/02:30am 15.0 16.2 13.9 93 0.6 CALM 0 0 0 0 1009.0 1009.0 0.0
13/02:00am 15.5 16.9 14.4 93 0.6 CALM 0 0 0 0 1009.3 1009.3 0.0
13/01:30am 15.9 17.5 14.8 93 0.6 CALM 0 0 0 0 1009.7 1009.7 0.0
13/01:00am 15.3 16.6 14.2 93 0.6 CALM 0 0 0 0 1010.2 1010.2 0.0
13/12:30am 16.3 18.0 15.2 93 0.6 CALM 0 0 0 0 1010.3 1010.3 0.0
13/12:00am 16.4 18.1 15.1 92 0.8 CALM 0 0 0 0 1010.8 1010.8 0.0
 
Date/Time
EDT
Tmp

°C
App
Tmp
°C
Dew
Point
°C
Rel
Hum
%
Delta-T

°C
Wind Press
QNH
hPa
Press
MSL
hPa
Rain
since
9 am
mm
Dir
 
Spd
km/h
Gust
km/h
Spd
kts
Gust
kts
12/11:30pm 16.1 16.9 14.8 92 0.7 SSW 4 4 2 2 1011.3 1011.3 0.0
12/11:00pm 17.0 18.5 15.7 92 0.8 S 2 4 1 2 1011.7 1011.7 0.0
12/10:30pm 17.4 18.3 16.1 92 0.8 S 6 9 3 5 1011.8 1011.8 0.0
12/10:00pm 17.7 18.4 16.0 90 1.0 S 7 9 4 5 1012.2 1012.2 0.0
12/09:30pm 18.1 18.6 15.5 85 1.5 S 7 11 4 6 1012.2 1012.2 0.0
12/09:00pm 18.4 18.1 15.5 83 1.7 S 11 13 6 7 1012.0 1012.0 0.0
12/08:30pm 18.9 17.7 15.0 78 2.3 S 15 19 8 10 1012.2 1012.2 0.0
12/08:00pm 19.6 18.3 14.8 74 2.8 SSE 15 20 8 11 1012.2 1012.2 0.0
12/07:30pm 20.0 18.6 14.6 71 3.1 SSE 15 20 8 11 1012.0 1012.0 0.0
12/07:00pm 20.0 18.3 14.6 71 3.2 S 17 24 9 13 1012.1 1012.1 0.0
12/06:30pm 20.9 19.1 14.5 67 3.7 SSE 17 24 9 13 1012.1 1012.1 0.0
12/06:00pm 21.3 19.1 14.5 65 4.0 S 19 24 10 13 1012.3 1012.3 0.0
12/05:30pm 21.7 19.9 14.4 63 4.3 SSE 17 24 9 13 1012.5 1012.5 0.0
12/05:00pm 22.2 20.5 14.6 62 4.5 SSE 17 22 9 12 1012.7 1012.7 0.0
12/04:30pm 22.7 20.8 14.3 59 4.9 S 17 32 9 17 1012.9 1012.9 0.0
12/04:00pm 23.0 21.3 14.6 59 5.0 SSE 17 24 9 13 1013.1 1013.1 0.0
12/03:30pm 22.7 20.8 14.3 59 4.9 SSE 17 26 9 14 1013.4 1013.4 0.0
12/03:00pm 23.7 22.1 14.9 57 5.2 SSE 17 28 9 15 1013.7 1013.7 0.0
12/02:30pm 22.5 21.5 14.6 61 4.7 S 13 22 7 12 1014.3 1014.3 0.0
12/02:00pm 22.6 21.5 14.4 60 4.8 SSE 13 24 7 13 1014.9 1014.9 0.0
12/01:30pm 22.2 20.5 14.6 62 4.5 SSE 17 28 9 15 1015.2 1015.2 0.0
12/01:00pm 23.1 22.3 15.2 61 4.7 SE 13 28 7 15 1015.3 1015.3 0.0
12/12:30pm 21.8 20.5 14.7 64 4.2 SSE 15 20 8 11 1015.5 1015.5 0.0
12/12:00pm 21.5 20.1 14.6 65 4.0 SSE 15 24 8 13 1015.9 1015.9 0.0
12/11:30am 20.6 19.2 14.5 68 3.6 SSE 15 24 8 13 1016.1 1016.1 0.0
12/11:00am 20.9 20.9 14.3 66 3.8 SE 7 15 4 8 1016.2 1016.2 0.0
12/10:30am 20.4 21.0 14.3 68 3.5 SSE 4 9 2 5 1016.6 1016.6 0.0
12/10:00am 19.4 19.5 13.8 70 3.2 NNE 6 11 3 6 1016.7 1016.7 0.0
12/09:30am 19.4 19.3 14.0 71 3.1 ENE 7 11 4 6 1016.8 1016.8 0.0
12/09:00am 19.2 19.5 14.5 74 2.7 E 6 7 3 4 1016.9 1016.9 0.0
12/08:30am 18.7 19.9 15.9 84 1.7 E 4 6 2 3 1016.8 1016.8 0.0
12/08:00am 15.9 17.5 14.8 93 0.6 CALM 0 2 0 1 1016.7 1016.7 0.0
12/07:30am 14.1 15.0 13.0 93 0.6 CALM 0 0 0 0 1016.6 1016.6 0.0
12/07:00am 13.7 14.5 12.6 93 0.6 CALM 0 4 0 2 1016.7 1016.7 0.0
12/06:30am 13.7 14.5 12.6 93 0.6 CALM 0 0 0 0 1016.5 1016.5 0.0
12/06:00am 13.5 13.5 12.4 93 0.6 S 4 6 2 3 1016.4 1016.4 0.0
12/05:30am 13.9 14.0 12.6 92 0.7 SW 4 6 2 3 1016.3 1016.3 0.0
12/05:00am 14.2 14.0 12.9 92 0.7 SSW 6 6 3 3 1016.1 1016.1 0.0
12/04:30am 15.0 15.3 13.5 91 0.8 SSE 4 4 2 2 1016.0 1016.0 0.0
12/04:00am 15.4 15.4 13.6 89 1.0 S 6 7 3 4 1016.4 1016.4 0.0
12/03:30am 15.9 15.9 14.3 90 0.9 SSE 7 9 4 5 1016.5 1016.5 0.0
12/03:00am 15.8 15.9 14.5 92 0.7 SSE 7 9 4 5 1016.7 1016.7 0.0
12/02:30am 15.5 15.7 14.2 92 0.7 SSE 6 6 3 3 1016.9 1016.9 0.0
12/02:00am 15.6 16.6 14.3 92 0.7 SE 2 2 1 1 1017.1 1017.1 0.0
12/01:30am 16.4 17.3 15.1 92 0.8 SE 4 6 2 3 1017.3 1017.3 0.0
12/01:00am 16.0 16.8 14.7 92 0.7 SSE 4 6 2 3 1017.6 1017.6 0.0
12/12:30am 15.8 16.5 14.5 92 0.7 SSE 4 4 2 2 1017.8 1017.8 0.0
12/12:00am 16.4 17.2 14.9 91 0.9 SSE 4 6 2 3 1018.0 1018.0 0.0
 
Date/Time
EDT
Tmp

°C
App
Tmp
°C
Dew
Point
°C
Rel
Hum
%
Delta-T

°C
Wind Press
QNH
hPa
Press
MSL
hPa
Rain
since
9 am
mm
Dir
 
Spd
km/h
Gust
km/h
Spd
kts
Gust
kts
11/11:30pm 16.9 17.4 14.9 88 1.2 SSE 6 7 3 4 1018.0 1018.0 0.0
11/11:00pm 17.1 17.5 14.7 86 1.4 SSE 6 7 3 4 1018.1 1018.1 0.0
11/10:30pm 17.6 17.8 14.7 83 1.7 SSE 7 11 4 6 1018.1 1018.1 0.0
11/10:00pm 17.9 17.7 14.6 81 1.9 SSE 9 11 5 6 1018.0 1018.0 0.0
11/09:30pm 18.2 17.6 14.5 79 2.1 S 11 17 6 9 1017.7 1017.7 0.0
11/09:00pm 18.2 17.2 14.5 79 2.1 S 13 20 7 11 1017.4 1017.4 0.0
11/08:30pm 18.6 17.1 14.3 76 2.5 S 15 20 8 11 1017.0 1017.0 0.0
11/08:00pm 19.3 17.8 14.1 72 3.0 SSE 15 22 8 12 1016.4 1016.4 0.0
11/07:30pm 20.2 18.0 14.3 69 3.4 SSE 19 24 10 13 1016.3 1016.3 0.0
11/07:00pm 20.7 18.1 14.8 69 3.5 S 22 32 12 17 1016.3 1016.3 0.0
11/06:30pm 21.0 18.7 14.6 67 3.7 SSE 20 28 11 15 1016.2 1016.2 0.0
11/06:00pm 21.3 19.0 14.2 64 4.1 SSE 19 28 10 15 1016.0 1016.0 0.0
11/05:30pm 21.7 19.1 13.9 61 4.5 SSE 20 28 11 15 1016.0 1016.0 0.0
11/05:00pm 22.4 20.0 14.3 60 4.7 SSE 20 30 11 16 1015.8 1015.8 0.0
11/04:30pm 22.8 19.4 13.8 57 5.2 S 24 32 13 17 1016.1 1016.1 0.0
11/04:00pm 22.4 19.4 13.7 58 5.0 S 22 32 12 17 1016.2 1016.2 0.0
11/03:30pm 22.4 19.7 13.5 57 5.1 S 20 30 11 16 1016.3 1016.3 0.0
11/03:00pm 22.6 20.0 13.7 57 5.2 S 20 32 11 17 1016.3 1016.3 0.0
11/02:30pm 22.5 19.5 12.4 52 5.7 S 20 30 11 16 1016.2 1016.2 0.0
11/02:00pm 22.8 19.8 12.7 53 5.8 S 20 30 11 16 1016.4 1016.4 0.0
11/01:30pm 22.5 19.7 12.7 54 5.6 S 19 24 10 13 1016.4 1016.4 0.0
11/01:00pm 22.8 21.3 13.0 54 5.6 SSE 13 20 7 11 1016.5 1016.5 0.0

Latest Capital City Observations: Canberra | Sydney | Melbourne | Brisbane | Adelaide | Perth | Hobart | Darwin

Other Formats:

Comma delimited format used in spreadsheet applications
http://www.bom.gov.au/fwo/IDV60901/IDV60901.94857.axf

JavaScript Object Notation format (JSON) in row-major order
http://www.bom.gov.au/fwo/IDV60901/IDV60901.94857.json